createdAt,value
2022-10-18T00:00:06.486Z,2.80
2022-10-18T00:02:38.128Z,2.80
2022-10-18T00:05:05.612Z,2.63
2022-10-18T00:07:32.925Z,2.67
2022-10-18T00:09:59.961Z,3.23
2022-10-18T00:12:26.859Z,2.87
2022-10-18T00:14:53.804Z,2.97
2022-10-18T00:17:20.759Z,3.27
2022-10-18T00:19:48.282Z,3.30
2022-10-18T00:22:15.181Z,3.50
2022-10-18T00:24:42.133Z,2.90
2022-10-18T00:27:08.987Z,3.10
2022-10-18T00:29:35.828Z,3.40
2022-10-18T00:32:02.712Z,3.40
2022-10-18T00:34:29.653Z,3.07
2022-10-18T00:36:56.503Z,3.17
2022-10-18T00:39:23.460Z,3.27
2022-10-18T00:41:50.809Z,3.00
2022-10-18T00:44:17.619Z,3.43
2022-10-18T00:46:47.519Z,3.40
2022-10-18T00:49:44.581Z,3.37
2022-10-18T00:52:27.988Z,3.20
2022-10-18T00:54:56.768Z,3.10
2022-10-18T00:57:24.531Z,3.20
2022-10-18T00:59:51.810Z,3.13
2022-10-18T01:02:19.061Z,3.57
2022-10-18T01:04:47.276Z,3.20
2022-10-18T01:07:23.398Z,3.47
2022-10-18T01:09:56.410Z,3.27
2022-10-18T01:12:44.460Z,3.33
2022-10-18T01:15:25.781Z,3.43
2022-10-18T01:18:01.853Z,3.30
2022-10-18T01:20:40.842Z,2.73
2022-10-18T01:23:12.431Z,3.50
2022-10-18T01:26:03.819Z,3.23
2022-10-18T01:28:52.005Z,3.10
2022-10-18T01:31:21.692Z,3.53
2022-10-18T01:33:56.755Z,3.60
2022-10-18T01:36:48.964Z,3.30
2022-10-18T01:39:21.543Z,3.30
2022-10-18T01:41:50.838Z,3.17
2022-10-18T01:44:26.475Z,3.27
2022-10-18T01:46:55.095Z,3.33
2022-10-18T01:49:22.601Z,3.30
2022-10-18T01:51:49.444Z,3.20
2022-10-18T01:54:21.845Z,3.30
2022-10-18T01:56:56.918Z,3.30
2022-10-18T01:59:29.512Z,3.27
2022-10-18T02:02:06.571Z,2.83
2022-10-18T02:04:59.715Z,3.10
2022-10-18T02:07:36.615Z,2.77
2022-10-18T02:10:23.013Z,2.90
2022-10-18T02:12:52.506Z,2.97
2022-10-18T02:15:24.189Z,2.93
2022-10-18T02:17:51.995Z,3.10
2022-10-18T02:20:22.277Z,3.10
2022-10-18T02:22:52.666Z,3.07
2022-10-18T02:25:25.004Z,2.83
2022-10-18T02:27:55.030Z,3.03
2022-10-18T02:30:29.264Z,3.23
2022-10-18T02:33:08.994Z,2.90
2022-10-18T02:35:41.380Z,2.53
2022-10-18T02:38:10.740Z,3.30
2022-10-18T02:40:37.719Z,2.80
2022-10-18T02:43:06.730Z,3.20
2022-10-18T02:45:33.703Z,2.80
2022-10-18T02:48:00.619Z,3.00
2022-10-18T02:50:27.481Z,3.40
2022-10-18T02:52:54.286Z,3.23
2022-10-18T02:55:21.260Z,3.10
2022-10-18T02:57:48.184Z,3.00
2022-10-18T03:00:15.516Z,2.60
2022-10-18T03:02:42.359Z,3.13
2022-10-18T03:05:09.298Z,3.10
2022-10-18T03:07:36.262Z,3.40
2022-10-18T03:10:03.927Z,3.23
2022-10-18T03:12:30.742Z,3.60
2022-10-18T03:14:57.638Z,2.90
2022-10-18T03:17:24.550Z,2.87
2022-10-18T03:19:51.402Z,3.10
2022-10-18T03:22:18.317Z,3.10
2022-10-18T03:24:45.583Z,2.70
2022-10-18T03:27:12.420Z,2.60
2022-10-18T03:29:39.337Z,2.63
2022-10-18T03:32:06.386Z,2.90
2022-10-18T03:34:33.252Z,3.17
2022-10-18T03:37:03.381Z,2.87
2022-10-18T03:39:32.261Z,2.70
2022-10-18T03:41:59.151Z,2.80
2022-10-18T03:44:26.014Z,3.00
2022-10-18T03:46:52.902Z,2.80
2022-10-18T03:49:19.818Z,2.93
2022-10-18T03:51:46.770Z,2.97
2022-10-18T03:54:13.736Z,3.10
2022-10-18T03:56:40.558Z,3.13
2022-10-18T03:59:07.424Z,3.07
2022-10-18T04:01:34.322Z,3.07
2022-10-18T04:04:01.223Z,2.83
2022-10-18T04:06:28.099Z,2.70
2022-10-18T04:08:55.632Z,2.77
2022-10-18T04:11:22.469Z,2.80
2022-10-18T04:13:50.396Z,2.93
2022-10-18T04:16:17.230Z,2.80
2022-10-18T04:18:44.158Z,2.80
2022-10-18T04:21:11.022Z,2.77
2022-10-18T04:23:38.883Z,3.00
2022-10-18T04:26:07.471Z,2.53
2022-10-18T04:28:35.332Z,3.73
2022-10-18T04:31:06.896Z,2.80
2022-10-18T04:33:33.779Z,3.00
2022-10-18T04:36:00.628Z,3.83
2022-10-18T04:38:27.653Z,4.00
2022-10-18T04:40:54.483Z,5.70
2022-10-18T04:43:21.398Z,5.73
2022-10-18T04:45:48.697Z,5.73
2022-10-18T04:48:15.629Z,5.20
2022-10-18T04:50:42.501Z,4.97
2022-10-18T04:53:14.964Z,4.27
2022-10-18T04:55:52.059Z,3.90
2022-10-18T04:58:19.338Z,4.30
2022-10-18T05:00:47.770Z,3.50
2022-10-18T05:03:15.068Z,3.20
2022-10-18T05:06:00.762Z,3.37
2022-10-18T05:08:29.386Z,3.40
2022-10-18T05:10:56.342Z,3.50
2022-10-18T05:13:23.310Z,3.00
2022-10-18T05:15:50.214Z,3.60
2022-10-18T05:18:17.065Z,3.13
2022-10-18T05:20:43.938Z,2.83
2022-10-18T05:23:10.962Z,2.93
2022-10-18T05:25:44.121Z,2.93
2022-10-18T05:28:34.581Z,2.77
2022-10-18T05:31:03.421Z,3.10
2022-10-18T05:33:30.838Z,3.37
2022-10-18T05:35:57.823Z,3.37
2022-10-18T05:38:25.248Z,3.20
2022-10-18T05:40:52.428Z,3.57
2022-10-18T05:43:19.269Z,2.90
2022-10-18T05:45:52.266Z,2.97
2022-10-18T05:48:19.244Z,3.20
2022-10-18T05:50:46.202Z,2.97
2022-10-18T05:53:35.353Z,3.03
2022-10-18T05:56:04.162Z,3.10
2022-10-18T05:58:31.020Z,3.30
2022-10-18T06:01:05.738Z,2.70
2022-10-18T06:03:32.839Z,2.93
2022-10-18T06:06:11.061Z,2.97
2022-10-18T06:08:39.203Z,2.90
2022-10-18T06:11:11.465Z,3.00
2022-10-18T06:13:50.102Z,3.10
2022-10-18T06:16:19.503Z,2.70
2022-10-18T06:18:51.505Z,3.10
2022-10-18T06:21:19.435Z,2.80
2022-10-18T06:23:50.967Z,2.90
2022-10-18T06:26:18.056Z,2.57
2022-10-18T06:28:45.035Z,2.80
2022-10-18T06:31:12.789Z,2.40
2022-10-18T06:33:40.053Z,2.77
2022-10-18T06:36:10.478Z,3.00
2022-10-18T06:38:37.774Z,3.00
2022-10-18T06:41:05.671Z,3.20
2022-10-18T06:43:32.745Z,2.83
2022-10-18T06:46:02.211Z,2.90
2022-10-18T06:48:29.230Z,2.90
2022-10-18T06:50:58.401Z,3.20
2022-10-18T06:53:26.902Z,3.53
2022-10-18T06:55:58.997Z,3.13
2022-10-18T06:58:25.808Z,3.23
2022-10-18T07:00:52.703Z,3.50
2022-10-18T07:03:20.660Z,3.53
2022-10-18T07:05:50.847Z,3.07
2022-10-18T07:08:18.749Z,4.03
2022-10-18T07:10:53.241Z,3.57
2022-10-18T07:13:32.490Z,3.47
2022-10-18T07:16:10.623Z,3.33
2022-10-18T07:18:42.030Z,3.20
2022-10-18T07:21:11.414Z,3.60
2022-10-18T07:23:41.013Z,3.30
2022-10-18T07:26:29.101Z,3.50
2022-10-18T07:29:08.065Z,3.60
2022-10-18T07:31:35.511Z,3.73
2022-10-18T07:34:05.023Z,3.63
2022-10-18T07:36:31.890Z,3.67
2022-10-18T07:38:59.663Z,3.80
2022-10-18T07:41:26.741Z,3.57
2022-10-18T07:43:54.456Z,3.20
2022-10-18T07:46:23.048Z,3.77
2022-10-18T07:48:50.736Z,3.60
2022-10-18T07:51:18.681Z,3.97
2022-10-18T07:53:45.996Z,3.73
2022-10-18T07:56:21.194Z,3.50
2022-10-18T07:58:54.136Z,3.63
2022-10-18T08:01:22.764Z,3.63
2022-10-18T08:03:50.325Z,3.37
2022-10-18T08:06:19.569Z,3.90
2022-10-18T08:08:47.840Z,4.20
2022-10-18T08:11:20.389Z,3.67
2022-10-18T08:13:47.797Z,4.13
2022-10-18T08:16:21.046Z,4.20
2022-10-18T08:18:48.094Z,4.00
2022-10-18T08:21:16.318Z,3.77
2022-10-18T08:23:43.194Z,3.83
2022-10-18T08:26:22.024Z,4.20
2022-10-18T08:28:54.315Z,4.07
2022-10-18T08:31:31.115Z,4.00
2022-10-18T08:33:58.119Z,4.10
2022-10-18T08:36:25.167Z,4.03
2022-10-18T08:38:52.282Z,4.30
2022-10-18T08:41:34.199Z,3.90
2022-10-18T08:44:22.767Z,4.17
2022-10-18T08:47:04.484Z,4.10
2022-10-18T08:49:44.239Z,4.13
2022-10-18T08:52:52.101Z,4.10
2022-10-18T08:55:29.026Z,3.90
2022-10-18T08:57:58.165Z,4.13
2022-10-18T09:00:29.211Z,4.37
2022-10-18T09:03:29.801Z,4.13
2022-10-18T09:06:19.866Z,3.93
2022-10-18T09:09:15.787Z,3.70
2022-10-18T09:12:27.109Z,4.00
2022-10-18T09:15:04.959Z,3.87
2022-10-18T09:17:48.574Z,4.00
2022-10-18T09:20:27.700Z,3.90
2022-10-18T09:23:20.085Z,4.43
2022-10-18T09:25:55.672Z,4.50
2022-10-18T09:29:05.710Z,3.97
2022-10-18T09:31:49.657Z,4.00
2022-10-18T09:34:25.895Z,4.00
2022-10-18T09:36:53.609Z,3.83
2022-10-18T09:39:25.334Z,3.93
2022-10-18T09:42:04.016Z,4.13
2022-10-18T09:44:55.122Z,4.13
2022-10-18T09:50:01.545Z,4.30
2022-10-18T09:52:34.643Z,3.93
2022-10-18T09:55:08.707Z,4.50
2022-10-18T09:57:46.953Z,4.30
2022-10-18T10:00:34.456Z,4.63
2022-10-18T10:03:02.339Z,4.23
2022-10-18T10:05:29.333Z,4.57
2022-10-18T10:07:59.979Z,4.20
2022-10-18T10:10:29.621Z,3.97
2022-10-18T10:13:16.870Z,4.57
2022-10-18T10:15:56.426Z,3.90
2022-10-18T10:18:39.021Z,4.07
2022-10-18T10:21:15.852Z,4.00
2022-10-18T10:23:55.685Z,4.23
2022-10-18T10:26:28.268Z,3.80
2022-10-18T10:28:55.174Z,4.17
2022-10-18T10:31:25.162Z,4.40
2022-10-18T10:34:14.980Z,4.33
2022-10-18T10:36:50.305Z,3.97
2022-10-18T10:39:19.647Z,4.00
2022-10-18T10:42:01.059Z,3.60
2022-10-18T10:44:32.238Z,4.00
2022-10-18T10:47:00.084Z,3.97
2022-10-18T10:49:43.244Z,3.90
2022-10-18T10:52:36.652Z,4.13
2022-10-18T10:57:52.876Z,4.60
2022-10-18T11:00:56.538Z,3.80
2022-10-18T11:03:28.986Z,3.73
2022-10-18T11:05:58.052Z,3.57
2022-10-18T11:08:28.243Z,4.00
2022-10-18T11:11:15.315Z,4.07
2022-10-18T11:13:49.917Z,3.90
2022-10-18T11:16:32.481Z,3.90
2022-10-18T11:19:10.243Z,3.90
2022-10-18T11:21:38.205Z,3.63
2022-10-18T11:24:09.434Z,4.10
2022-10-18T11:27:02.299Z,4.00
2022-10-18T11:29:29.082Z,3.80
2022-10-18T11:32:25.918Z,3.70
2022-10-18T11:35:12.314Z,3.80
2022-10-18T11:37:47.240Z,4.20
2022-10-18T11:40:28.901Z,4.07
2022-10-18T11:43:00.513Z,3.93
2022-10-18T11:45:56.731Z,3.90
2022-10-18T11:48:43.704Z,4.10
2022-10-18T11:51:38.591Z,3.73
2022-10-18T11:54:33.291Z,3.63
2022-10-18T11:57:21.773Z,3.87
2022-10-18T12:00:09.936Z,3.93
2022-10-18T12:02:57.394Z,3.70
2022-10-18T12:05:25.522Z,4.10
2022-10-18T12:08:05.270Z,3.60
2022-10-18T12:10:46.152Z,4.33
2022-10-18T12:13:46.396Z,3.87
2022-10-18T12:16:13.943Z,3.77
2022-10-18T12:19:02.974Z,3.77
2022-10-18T12:21:32.735Z,4.23
2022-10-18T12:24:07.262Z,4.20
2022-10-18T12:26:36.060Z,3.80
2022-10-18T12:29:15.962Z,4.43
2022-10-18T12:31:45.524Z,3.63
2022-10-18T12:34:21.550Z,4.30
2022-10-18T12:37:07.370Z,4.27
2022-10-18T12:39:50.446Z,3.70
2022-10-18T12:42:33.396Z,3.83
2022-10-18T12:45:18.580Z,3.57
2022-10-18T12:47:45.595Z,3.77
2022-10-18T12:50:37.375Z,3.43
2022-10-18T12:53:10.376Z,3.20
2022-10-18T12:56:02.074Z,3.70
2022-10-18T12:58:31.823Z,3.50
2022-10-18T13:01:02.264Z,3.53
2022-10-18T13:03:51.645Z,3.60
2022-10-18T13:06:18.853Z,3.67
2022-10-18T13:08:48.208Z,3.47
2022-10-18T13:11:30.004Z,3.43
2022-10-18T13:14:25.237Z,3.27
2022-10-18T13:16:57.981Z,3.30
2022-10-18T13:20:07.708Z,3.50
2022-10-18T13:22:48.832Z,3.40
2022-10-18T13:25:34.184Z,3.10
2022-10-18T13:28:04.707Z,3.07
2022-10-18T13:30:33.456Z,2.90
2022-10-18T13:33:23.627Z,3.60
2022-10-18T13:36:00.572Z,3.30
2022-10-18T13:38:33.174Z,3.30
2022-10-18T13:41:14.045Z,2.97
2022-10-18T13:43:53.389Z,3.23
2022-10-18T13:46:24.337Z,3.00
2022-10-18T13:48:53.529Z,3.53
2022-10-18T13:51:20.325Z,3.10
2022-10-18T13:54:04.261Z,3.30
2022-10-18T13:56:50.429Z,3.50
2022-10-18T13:59:29.341Z,3.70
2022-10-18T14:02:43.013Z,3.33
2022-10-18T14:05:41.663Z,3.40
2022-10-18T14:08:31.468Z,3.17
2022-10-18T14:11:15.345Z,3.73
2022-10-18T14:13:55.593Z,3.33
2022-10-18T14:17:06.223Z,3.53
2022-10-18T14:19:42.869Z,3.47
2022-10-18T14:22:22.008Z,3.50
2022-10-18T14:24:54.309Z,3.70
2022-10-18T14:27:33.020Z,3.57
2022-10-18T14:30:19.692Z,3.30
2022-10-18T14:32:54.445Z,3.47
2022-10-18T14:35:33.711Z,3.33
2022-10-18T14:38:02.092Z,3.40
2022-10-18T14:40:40.685Z,3.70
2022-10-18T14:43:13.492Z,3.30
2022-10-18T14:45:41.835Z,3.57
2022-10-18T14:48:22.086Z,3.40
2022-10-18T14:50:59.325Z,3.60
2022-10-18T14:53:32.567Z,3.57
2022-10-18T14:56:00.986Z,3.60
2022-10-18T14:58:28.115Z,3.33
2022-10-18T15:00:55.420Z,3.53
2022-10-18T15:03:22.914Z,3.30
2022-10-18T15:05:55.431Z,2.90
2022-10-18T15:08:24.517Z,2.90
2022-10-18T15:10:51.994Z,2.67
2022-10-18T15:13:19.172Z,2.87
2022-10-18T15:15:46.251Z,2.40
2022-10-18T15:18:26.818Z,3.10
2022-10-18T15:21:18.584Z,4.47
2022-10-18T15:23:45.537Z,6.83
2022-10-18T15:26:20.392Z,6.73
2022-10-18T15:28:54.248Z,4.73
2022-10-18T15:31:29.080Z,4.67
2022-10-18T15:34:23.673Z,3.50
2022-10-18T15:36:53.911Z,4.40
2022-10-18T15:39:22.423Z,3.30
2022-10-18T15:42:00.037Z,3.53
2022-10-18T15:44:47.655Z,3.73
2022-10-18T15:47:20.268Z,3.20
2022-10-18T15:49:47.170Z,3.37
2022-10-18T15:52:38.241Z,3.10
2022-10-18T15:55:30.763Z,3.07
2022-10-18T15:58:39.284Z,3.30
2022-10-18T16:01:17.737Z,2.97
2022-10-18T16:03:46.467Z,3.73
2022-10-18T16:06:18.060Z,3.43
2022-10-18T16:08:48.570Z,3.10
2022-10-18T16:11:18.297Z,3.30
2022-10-18T16:13:45.571Z,3.03
2022-10-18T16:16:32.955Z,3.20
2022-10-18T16:18:59.862Z,2.83
2022-10-18T16:21:33.582Z,3.50
2022-10-18T16:24:00.449Z,3.20
2022-10-18T16:26:27.988Z,3.00
2022-10-18T16:28:56.115Z,3.60
2022-10-18T16:31:25.725Z,3.60
2022-10-18T16:33:53.845Z,3.80
2022-10-18T16:36:25.247Z,3.80
2022-10-18T16:38:54.979Z,4.03
2022-10-18T16:41:22.230Z,3.83
2022-10-18T16:43:50.235Z,3.57
2022-10-18T16:46:24.410Z,3.53
2022-10-18T16:48:51.545Z,3.40
2022-10-18T16:51:18.449Z,3.47
2022-10-18T16:53:45.803Z,3.70
2022-10-18T16:56:18.620Z,3.47
2022-10-18T16:58:46.371Z,4.03
2022-10-18T17:01:18.793Z,4.20
2022-10-18T17:03:46.419Z,3.83
2022-10-18T17:06:17.150Z,4.40
2022-10-18T17:08:44.455Z,4.50
2022-10-18T17:11:13.608Z,4.47
2022-10-18T17:13:41.041Z,4.10
2022-10-18T17:16:20.362Z,4.50
2022-10-18T17:18:47.230Z,4.70
2022-10-18T17:21:14.109Z,4.97
2022-10-18T17:23:41.014Z,4.53
2022-10-18T17:26:34.266Z,4.70
2022-10-18T17:29:08.442Z,5.30
2022-10-18T17:31:36.026Z,4.97
2022-10-18T17:34:03.407Z,4.73
2022-10-18T17:36:31.939Z,5.30
2022-10-18T17:38:59.208Z,4.57
2022-10-18T17:41:26.552Z,4.67
2022-10-18T17:43:53.417Z,4.53
2022-10-18T17:46:20.553Z,4.60
2022-10-18T17:48:47.556Z,5.23
2022-10-18T17:51:16.963Z,4.93
2022-10-18T17:53:44.400Z,5.17
2022-10-18T17:56:12.083Z,4.43
2022-10-18T17:58:39.162Z,5.50
2022-10-18T18:01:24.115Z,4.90
2022-10-18T18:03:56.032Z,5.17
2022-10-18T18:06:34.672Z,5.77
2022-10-18T18:09:08.536Z,5.47
2022-10-18T18:11:37.696Z,5.67
2022-10-18T18:14:08.979Z,5.13
2022-10-18T18:16:39.109Z,5.67
2022-10-18T18:19:09.720Z,5.43
2022-10-18T18:21:37.353Z,5.10
2022-10-18T18:24:04.605Z,4.77
2022-10-18T18:26:33.936Z,4.60
2022-10-18T18:31:30.785Z,4.27
2022-10-18T18:34:01.504Z,4.43
2022-10-18T18:36:32.500Z,4.40
2022-10-18T18:38:59.674Z,3.93
2022-10-18T18:41:28.477Z,4.00
2022-10-18T18:44:01.958Z,4.20
2022-10-18T18:46:32.891Z,3.87
2022-10-18T18:49:00.090Z,3.63
2022-10-18T18:51:27.293Z,3.67
2022-10-18T18:53:54.168Z,3.70
2022-10-18T18:56:23.936Z,3.47
2022-10-18T18:58:53.252Z,3.70
2022-10-18T19:01:25.721Z,3.20
2022-10-18T19:03:54.461Z,3.10
2022-10-18T19:06:33.043Z,2.73
2022-10-18T19:09:03.295Z,2.90
2022-10-18T19:11:33.610Z,3.27
2022-10-18T19:14:01.044Z,3.17
2022-10-18T19:16:36.633Z,3.00
2022-10-18T19:19:15.090Z,3.20
2022-10-18T19:21:45.774Z,3.20
2022-10-18T19:24:13.819Z,3.03
2022-10-18T19:26:49.510Z,3.23
2022-10-18T19:29:37.942Z,2.80
2022-10-18T19:32:07.506Z,2.93
2022-10-18T19:34:35.024Z,2.80
2022-10-18T19:37:01.927Z,2.57
2022-10-18T19:39:33.527Z,2.43
2022-10-18T19:42:03.294Z,2.10
2022-10-18T19:44:32.812Z,2.57
2022-10-18T19:47:00.550Z,2.60
2022-10-18T19:49:28.662Z,2.20
2022-10-18T19:51:56.067Z,2.03
2022-10-18T19:54:23.235Z,2.10
2022-10-18T19:56:50.352Z,2.27
2022-10-18T19:59:17.783Z,2.00
2022-10-18T20:01:44.847Z,2.00
2022-10-18T20:04:12.913Z,1.93
2022-10-18T20:06:40.259Z,1.77
2022-10-18T20:09:08.727Z,1.60
2022-10-18T20:11:36.191Z,1.80
2022-10-18T20:14:05.529Z,1.80
2022-10-18T20:16:33.414Z,1.50
2022-10-18T20:19:02.771Z,1.30
2022-10-18T20:21:32.548Z,1.80
2022-10-18T20:23:59.362Z,1.80
2022-10-18T20:26:26.189Z,1.60
2022-10-18T20:28:57.919Z,1.80
2022-10-18T20:31:35.540Z,1.60
2022-10-18T20:34:04.503Z,1.50
2022-10-18T20:36:33.542Z,1.77
2022-10-18T20:39:00.802Z,1.80
2022-10-18T20:41:39.908Z,2.00
2022-10-18T20:44:11.474Z,2.30
2022-10-18T20:46:38.948Z,2.00
2022-10-18T20:49:07.431Z,1.70
2022-10-18T20:51:35.466Z,2.10
2022-10-18T20:56:34.281Z,1.87
2022-10-18T20:59:02.002Z,2.10
2022-10-18T21:01:31.388Z,1.83
2022-10-18T21:04:04.046Z,1.90
2022-10-18T21:06:33.688Z,2.23
2022-10-18T21:09:07.127Z,2.33
2022-10-18T21:11:39.293Z,2.10
2022-10-18T21:14:07.548Z,2.40
2022-10-18T21:16:35.920Z,2.40
2022-10-18T21:19:17.845Z,2.60
2022-10-18T21:21:47.440Z,2.30
2022-10-18T21:24:14.717Z,2.40
2022-10-18T21:26:41.759Z,3.17
2022-10-18T21:29:10.264Z,3.10
2022-10-18T21:31:40.150Z,3.63
2022-10-18T21:34:12.925Z,3.50
2022-10-18T21:36:41.079Z,3.20
2022-10-18T21:39:11.032Z,3.70
2022-10-18T21:41:38.165Z,4.17
2022-10-18T21:44:08.361Z,4.30
2022-10-18T21:46:39.426Z,4.00
2022-10-18T21:49:08.442Z,4.10
2022-10-18T21:51:35.826Z,4.30
2022-10-18T21:54:02.808Z,4.60
2022-10-18T21:56:33.431Z,4.43
2022-10-18T21:59:01.092Z,4.60
2022-10-18T22:01:34.042Z,4.50
2022-10-18T22:04:03.764Z,3.93
2022-10-18T22:06:32.837Z,4.10
2022-10-18T22:09:03.007Z,4.00
2022-10-18T22:11:33.374Z,3.50
2022-10-18T22:14:00.616Z,3.17
2022-10-18T22:16:28.217Z,3.73
2022-10-18T22:19:00.778Z,3.40
2022-10-18T22:21:28.113Z,3.57
2022-10-18T22:23:59.393Z,3.50
2022-10-18T22:26:28.932Z,3.20
2022-10-18T22:29:08.197Z,3.07
2022-10-18T22:31:38.259Z,2.47
2022-10-18T22:34:07.576Z,2.20
2022-10-18T22:36:35.561Z,1.87
2022-10-18T22:39:03.678Z,1.40
2022-10-18T22:41:30.540Z,1.30
2022-10-18T22:43:59.810Z,1.23
2022-10-18T22:46:29.752Z,1.20
2022-10-18T22:48:56.624Z,1.30
2022-10-18T22:51:23.608Z,1.17
2022-10-18T22:53:50.604Z,1.30
2022-10-18T22:56:20.854Z,1.20
2022-10-18T22:58:50.662Z,1.40
2022-10-18T23:01:20.901Z,1.57
2022-10-18T23:03:55.877Z,1.73
2022-10-18T23:06:27.666Z,1.80
2022-10-18T23:08:56.649Z,1.80
2022-10-18T23:11:24.690Z,1.47
2022-10-18T23:13:52.124Z,1.60
2022-10-18T23:16:19.263Z,1.70
2022-10-18T23:18:55.227Z,1.77
2022-10-18T23:21:24.450Z,1.83
2022-10-18T23:23:52.998Z,1.90
2022-10-18T23:26:23.387Z,1.93
2022-10-18T23:28:51.932Z,2.20
2022-10-18T23:31:24.749Z,2.50
2022-10-18T23:33:54.495Z,2.10
2022-10-18T23:36:23.004Z,2.10
2022-10-18T23:38:50.502Z,1.80
2022-10-18T23:41:17.859Z,1.80
2022-10-18T23:43:45.348Z,1.70
2022-10-18T23:46:12.569Z,1.50
2022-10-18T23:48:39.523Z,1.70
2022-10-18T23:51:06.797Z,1.63
2022-10-18T23:53:34.438Z,1.80
2022-10-18T23:56:04.397Z,1.90
2022-10-18T23:58:33.016Z,1.80
